Time;durP1;ratioP1;P1;durP2;ratioP2;P2;SDS_P1;SDS_P2;PMS_P1;PMS_P2;Temp;Humidity;BMP_temperature;BMP_pressure;BME280_temperature;BME280_humidity;BME280_pressure;Samples;Min_cycle;Max_cycle;Signal;HPM_P1;HPM_P2
2022/09/15 00:00:55;;;;;;;0.30;0.30;;;24.90;58.10;;;;;;5050877;28;20049;-59
2022/09/15 00:03:23;;;;;;;0.20;0.13;;;24.90;58.10;;;;;;5041424;28;20087;-58
2022/09/15 00:05:52;;;;;;;0.52;0.20;;;24.90;58.20;;;;;;5049049;28;20510;-59
2022/09/15 00:08:20;;;;;;;2.33;0.10;;;24.90;58.20;;;;;;5041721;28;20396;-59
2022/09/15 00:10:48;;;;;;;0.10;0.10;;;24.80;58.20;;;;;;5060128;28;20382;-59
2022/09/15 00:13:17;;;;;;;0.70;0.10;;;24.80;58.20;;;;;;5066959;28;20064;-59
2022/09/15 00:15:44;;;;;;;0.10;0.10;;;24.80;58.10;;;;;;5066770;28;20043;-59
2022/09/15 00:18:11;;;;;;;0.10;0.10;;;24.80;58.20;;;;;;5057642;28;20045;-59
2022/09/15 00:20:41;;;;;;;0.20;0.20;;;24.70;58.10;;;;;;5060053;28;20036;-59
2022/09/15 00:23:08;;;;;;;0.20;0.10;;;24.70;58.10;;;;;;5041535;28;20504;-59
2022/09/15 00:25:40;;;;;;;0.35;0.10;;;24.70;58.70;;;;;;5060125;28;20078;-59
2022/09/15 00:28:08;;;;;;;0.20;0.10;;;24.70;58.10;;;;;;5058936;28;20055;-59
2022/09/15 00:30:40;;;;;;;0.10;0.10;;;24.70;58.10;;;;;;5057539;28;20404;-59
2022/09/15 00:33:07;;;;;;;0.73;0.10;;;24.70;58.00;;;;;;5059385;28;20058;-61
2022/09/15 00:35:37;;;;;;;0.10;0.10;;;24.60;58.00;;;;;;5052589;28;20068;-59
2022/09/15 00:38:04;;;;;;;0.10;0.03;;;24.60;58.10;;;;;;5069756;28;20040;-59
2022/09/15 00:40:32;;;;;;;0.15;0.10;;;24.60;58.10;;;;;;5071170;28;20059;-60
2022/09/15 00:42:59;;;;;;;0.10;0.10;;;24.60;58.10;;;;;;5071017;28;20033;-60
2022/09/15 00:45:26;;;;;;;0.05;0.05;;;24.60;58.10;;;;;;5070799;28;20058;-60
2022/09/15 00:47:54;;;;;;;0.75;0.10;;;24.60;58.10;;;;;;5070222;28;20048;-59
2022/09/15 00:50:22;;;;;;;0.10;0.10;;;24.60;58.20;;;;;;5056788;28;20405;-60
2022/09/15 00:52:53;;;;;;;0.00;0.00;;;24.60;58.10;;;;;;5058441;28;20124;-59
2022/09/15 00:55:25;;;;;;;0.10;0.00;;;24.60;58.20;;;;;;5059473;28;20072;-60
2022/09/15 00:57:56;;;;;;;0.32;0.10;;;24.50;58.10;;;;;;5051225;28;20091;-59
2022/09/15 01:00:25;;;;;;;1.00;0.10;;;24.50;58.20;;;;;;5064781;28;20135;-59
2022/09/15 01:02:54;;;;;;;0.10;0.10;;;24.50;58.20;;;;;;5051486;28;20044;-59
2022/09/15 01:05:23;;;;;;;0.10;0.10;;;24.50;58.20;;;;;;5060037;28;20496;-60
2022/09/15 01:07:55;;;;;;;0.10;0.10;;;24.50;58.40;;;;;;5067820;28;20051;-58
2022/09/15 01:10:31;;;;;;;0.10;0.10;;;24.50;58.40;;;;;;5067567;28;20472;-57
2022/09/15 01:13:00;;;;;;;0.20;0.20;;;24.40;58.30;;;;;;5062475;28;20048;-59
2022/09/15 01:15:35;;;;;;;0.45;0.10;;;24.40;58.40;;;;;;5062008;28;20036;-60
2022/09/15 01:18:12;;;;;;;0.30;0.30;;;24.40;58.40;;;;;;5064248;28;20080;-60
2022/09/15 01:20:59;;;;;;;0.20;0.10;;;24.40;58.40;;;;;;5050886;28;20118;-58
2022/09/15 01:24:19;;;;;;;0.25;0.20;;;24.40;58.50;;;;;;5057016;28;20056;-59
2022/09/15 01:26:57;;;;;;;0.10;0.10;;;24.40;58.50;;;;;;5070357;28;20052;-60
2022/09/15 01:29:52;;;;;;;0.15;0.10;;;24.30;58.60;;;;;;5069999;28;20155;-60
2022/09/15 01:35:17;;;;;;;0.10;0.10;;;24.20;58.80;;;;;;5069209;28;20051;-60
2022/09/15 01:37:47;;;;;;;;;;;24.20;58.80;;;;;;5068878;28;20130;-59
2022/09/15 01:40:18;;;;;;;0.43;0.10;;;24.20;58.80;;;;;;5065367;28;19920;-59
2022/09/15 01:42:46;;;;;;;0.10;0.10;;;24.10;58.90;;;;;;5070074;28;20602;-60
2022/09/15 01:45:19;;;;;;;0.68;0.10;;;24.10;58.90;;;;;;5069501;28;20051;-60
2022/09/15 01:47:47;;;;;;;0.10;0.10;;;24.10;58.80;;;;;;5068483;28;20106;-59
2022/09/15 01:50:18;;;;;;;0.20;0.20;;;24.10;58.80;;;;;;5045190;28;20037;-59
2022/09/15 01:52:48;;;;;;;1.58;0.10;;;24.10;58.80;;;;;;5049173;28;20395;-60
2022/09/15 01:55:24;;;;;;;0.10;0.00;;;24.10;58.80;;;;;;5050555;28;20117;-60
2022/09/15 01:57:51;;;;;;;0.10;0.10;;;24.10;58.80;;;;;;5064874;28;20208;-60
2022/09/15 02:00:20;;;;;;;0.00;0.00;;;24.00;58.70;;;;;;5045122;28;20115;-60
2022/09/15 02:02:50;;;;;;;0.00;0.00;;;24.00;58.70;;;;;;5063896;28;20488;-60
2022/09/15 02:05:24;;;;;;;1.55;0.10;;;24.00;58.70;;;;;;5063372;28;20111;-59
2022/09/15 02:07:56;;;;;;;0.03;0.00;;;24.00;58.80;;;;;;5069364;28;20059;-59
2022/09/15 02:10:29;;;;;;;0.10;0.10;;;24.00;58.80;;;;;;5069545;28;20120;-60
2022/09/15 02:13:05;;;;;;;0.20;0.20;;;24.00;59.00;;;;;;5069017;28;20044;-60
2022/09/15 02:15:41;;;;;;;1.20;0.32;;;24.00;59.20;;;;;;5068679;28;20049;-60
2022/09/15 02:18:11;;;;;;;0.22;0.20;;;23.90;59.30;;;;;;5063407;28;20070;-59
2022/09/15 02:20:44;;;;;;;1.80;0.47;;;23.90;59.40;;;;;;5069091;28;20123;-60
2022/09/15 02:23:17;;;;;;;1.27;0.77;;;23.90;59.40;;;;;;5068980;28;20040;-60
2022/09/15 02:25:50;;;;;;;0.95;0.95;;;23.90;59.40;;;;;;5062110;28;20056;-60
2022/09/15 02:28:19;;;;;;;2.83;1.35;;;23.80;59.30;;;;;;5068798;28;20117;-60
2022/09/15 02:30:49;;;;;;;1.60;1.33;;;23.80;59.20;;;;;;5063925;28;20036;-60
2022/09/15 02:33:19;;;;;;;4.45;1.25;;;23.80;59.20;;;;;;5064534;28;20655;-60
2022/09/15 02:35:47;;;;;;;1.45;1.35;;;23.70;59.10;;;;;;5055492;28;20095;-60
2022/09/15 02:38:15;;;;;;;1.75;1.33;;;23.70;59.00;;;;;;5064834;28;20064;-60
2022/09/15 02:40:44;;;;;;;2.55;2.17;;;23.70;59.00;;;;;;5049721;28;20049;-60
2022/09/15 02:43:13;;;;;;;2.15;2.05;;;23.70;59.00;;;;;;5051345;28;20049;-60
2022/09/15 02:45:40;;;;;;;2.40;1.77;;;23.70;59.40;;;;;;5068191;28;20053;-59
2022/09/15 02:48:09;;;;;;;3.28;2.30;;;23.60;58.70;;;;;;5068368;28;20416;-59
2022/09/15 02:50:36;;;;;;;3.22;1.67;;;23.60;58.60;;;;;;5052111;28;20135;-59
2022/09/15 02:53:04;;;;;;;2.40;1.60;;;23.60;58.50;;;;;;5055857;28;20058;-59
2022/09/15 02:55:31;;;;;;;1.98;1.88;;;23.60;59.00;;;;;;5048108;28;20045;-59
2022/09/15 02:57:58;;;;;;;1.33;1.25;;;23.60;58.40;;;;;;5062150;28;20045;-59
2022/09/15 03:00:27;;;;;;;2.13;1.13;;;23.50;58.40;;;;;;5057681;28;20540;-60
2022/09/15 03:02:55;;;;;;;1.20;1.10;;;23.50;58.30;;;;;;5048899;28;20064;-60
2022/09/15 03:05:26;;;;;;;1.20;1.00;;;23.50;58.40;;;;;;5049058;28;20048;-56
2022/09/15 03:07:54;;;;;;;1.23;1.23;;;23.50;58.40;;;;;;5064583;28;20159;-58
2022/09/15 03:10:23;;;;;;;1.33;0.98;;;23.50;58.30;;;;;;5068310;28;20786;-58
2022/09/15 03:12:52;;;;;;;1.08;0.80;;;23.50;58.20;;;;;;5054914;28;20067;-60
2022/09/15 03:15:22;;;;;;;0.50;0.50;;;23.40;58.00;;;;;;5067768;28;20167;-59
2022/09/15 03:17:50;;;;;;;2.53;0.77;;;23.40;57.90;;;;;;5061883;28;20116;-60
2022/09/15 03:20:20;;;;;;;1.40;0.30;;;23.40;57.70;;;;;;5054966;28;20123;-60
2022/09/15 03:22:49;;;;;;;0.57;0.40;;;23.40;57.60;;;;;;5056996;28;20581;-60
2022/09/15 03:25:17;;;;;;;1.58;0.30;;;23.40;57.30;;;;;;5048933;28;20041;-59
2022/09/15 03:27:44;;;;;;;1.85;0.55;;;23.40;57.20;;;;;;5048265;28;20045;-60
2022/09/15 03:30:12;;;;;;;2.30;0.50;;;23.30;57.00;;;;;;5051824;28;20029;-60
2022/09/15 03:32:39;;;;;;;0.28;0.25;;;23.30;57.00;;;;;;5055124;28;20053;-60
2022/09/15 03:35:07;;;;;;;0.50;0.50;;;23.30;56.80;;;;;;5048740;28;20037;-59
2022/09/15 03:37:35;;;;;;;0.70;0.40;;;23.20;57.10;;;;;;5064728;28;20512;-58
2022/09/15 03:40:04;;;;;;;1.50;0.25;;;23.20;56.60;;;;;;5067518;28;20385;-60
2022/09/15 03:42:31;;;;;;;0.93;0.40;;;23.20;56.60;;;;;;5067576;28;20460;-60
2022/09/15 03:44:58;;;;;;;0.75;0.73;;;23.20;56.60;;;;;;5067779;28;20119;-60
2022/09/15 03:47:25;;;;;;;1.20;1.10;;;23.20;56.60;;;;;;5067860;28;20037;-60
2022/09/15 03:49:52;;;;;;;2.55;0.98;;;23.20;56.60;;;;;;5067741;28;20041;-60
2022/09/15 03:52:19;;;;;;;0.43;0.20;;;23.10;56.60;;;;;;5065161;28;20864;-63
2022/09/15 03:54:48;;;;;;;0.93;0.22;;;23.10;56.50;;;;;;5050374;28;20043;-60
2022/09/15 03:57:17;;;;;;;1.30;0.52;;;23.10;56.50;;;;;;5058970;28;20129;-60
2022/09/15 03:59:44;;;;;;;0.32;0.20;;;23.00;56.50;;;;;;5048372;28;20720;-61
2022/09/15 04:02:11;;;;;;;2.80;0.50;;;23.00;56.60;;;;;;5057942;28;21019;-60
2022/09/15 04:04:38;;;;;;;2.85;0.43;;;23.00;56.50;;;;;;5072064;28;20072;-61
2022/09/15 04:07:05;;;;;;;1.75;0.38;;;22.90;56.60;;;;;;5055834;28;20049;-59
2022/09/15 04:09:32;;;;;;;4.05;0.60;;;22.90;56.60;;;;;;5054952;28;20170;-61
2022/09/15 04:11:59;;;;;;;2.42;0.43;;;22.90;56.50;;;;;;5058248;28;20603;-60
2022/09/15 04:14:28;;;;;;;1.08;0.60;;;22.90;56.60;;;;;;5055670;28;20037;-59
2022/09/15 04:16:55;;;;;;;0.70;0.47;;;22.80;56.60;;;;;;5070137;28;20095;-60
2022/09/15 04:19:22;;;;;;;0.77;0.40;;;22.80;56.70;;;;;;5067117;28;20152;-60
2022/09/15 04:21:49;;;;;;;1.00;0.57;;;22.70;56.50;;;;;;5068194;28;20463;-59
2022/09/15 04:24:16;;;;;;;4.53;0.88;;;22.70;56.70;;;;;;5066831;28;20132;-60
2022/09/15 04:26:43;;;;;;;1.33;0.43;;;22.70;56.80;;;;;;5069572;28;20470;-60
2022/09/15 04:29:13;;;;;;;1.80;0.52;;;22.60;56.70;;;;;;5066308;28;20591;-59
2022/09/15 04:31:42;;;;;;;4.60;1.50;;;22.60;56.70;;;;;;5058350;28;20116;-60
2022/09/15 04:34:09;;;;;;;2.33;0.60;;;22.50;56.70;;;;;;5057849;28;20056;-61
2022/09/15 04:36:36;;;;;;;1.45;0.98;;;22.50;56.80;;;;;;5063613;28;20105;-62
2022/09/15 04:39:05;;;;;;;0.98;0.70;;;22.40;56.90;;;;;;5068438;28;20078;-61
2022/09/15 04:41:33;;;;;;;3.30;1.13;;;22.40;56.90;;;;;;5066401;28;20052;-60
2022/09/15 04:44:00;;;;;;;1.45;1.30;;;22.30;56.90;;;;;;5062235;28;20455;-60
2022/09/15 04:46:27;;;;;;;3.17;1.15;;;22.30;57.00;;;;;;5066031;28;20055;-60
2022/09/15 04:48:56;;;;;;;3.47;1.10;;;22.20;57.00;;;;;;5070900;28;20045;-59
2022/09/15 04:51:24;;;;;;;2.67;1.58;;;22.20;57.10;;;;;;5052605;28;20057;-60
2022/09/15 04:53:51;;;;;;;1.52;1.00;;;22.20;57.10;;;;;;5068833;28;20139;-60
2022/09/15 04:56:21;;;;;;;3.30;1.15;;;22.10;57.20;;;;;;5070424;28;20125;-60
2022/09/15 04:58:50;;;;;;;4.43;1.48;;;22.10;57.30;;;;;;5071085;28;20042;-60
2022/09/15 05:01:19;;;;;;;3.08;2.70;;;22.00;57.10;;;;;;5059705;28;20098;-61
2022/09/15 05:03:47;;;;;;;6.45;2.03;;;22.00;57.50;;;;;;5052640;28;20076;-61
2022/09/15 05:06:17;;;;;;;2.63;1.98;;;21.90;56.80;;;;;;5064001;28;20044;-57
2022/09/15 05:08:47;;;;;;;3.92;2.30;;;21.90;56.90;;;;;;5060197;28;20029;-60
2022/09/15 05:11:15;;;;;;;2.38;1.63;;;21.90;56.90;;;;;;5068062;28;20048;-59
2022/09/15 05:13:42;;;;;;;2.92;2.72;;;21.80;56.90;;;;;;5069234;28;20536;-59
2022/09/15 05:16:11;;;;;;;3.90;2.67;;;21.80;56.90;;;;;;5061443;28;20033;-60
2022/09/15 05:18:39;;;;;;;4.32;2.22;;;21.80;57.00;;;;;;5058844;28;20836;-60
2022/09/15 05:21:08;;;;;;;4.15;3.75;;;21.80;57.10;;;;;;5063989;28;20065;-59
2022/09/15 05:23:37;;;;;;;3.35;3.05;;;21.70;57.20;;;;;;5062378;28;20032;-59
2022/09/15 05:26:07;;;;;;;3.22;2.92;;;21.70;57.30;;;;;;5055587;28;20032;-58
2022/09/15 05:28:36;;;;;;;3.58;2.40;;;21.70;57.40;;;;;;5046830;28;20088;-60
2022/09/15 05:31:09;;;;;;;7.00;2.40;;;21.60;57.30;;;;;;5053235;28;20124;-60
2022/09/15 05:33:36;;;;;;;4.28;2.38;;;21.60;57.50;;;;;;5050774;28;20049;-59
2022/09/15 05:36:04;;;;;;;3.33;2.70;;;21.60;57.50;;;;;;5059236;28;20051;-57
2022/09/15 05:38:32;;;;;;;3.80;2.58;;;21.60;57.60;;;;;;5050531;28;20081;-57
2022/09/15 05:41:03;;;;;;;4.40;2.35;;;21.50;57.60;;;;;;5050570;28;20107;-59
2022/09/15 05:43:31;;;;;;;2.58;2.05;;;21.50;57.70;;;;;;5050596;28;20057;-59
2022/09/15 05:45:58;;;;;;;2.25;2.03;;;21.40;57.70;;;;;;5052742;28;20423;-58
2022/09/15 05:48:26;;;;;;;8.00;2.60;;;21.40;58.50;;;;;;5067101;28;20570;-58
2022/09/15 05:50:54;;;;;;;2.17;1.73;;;21.40;57.90;;;;;;5059078;28;20041;-59
2022/09/15 05:53:23;;;;;;;3.42;2.10;;;21.40;58.10;;;;;;5067373;28;20155;-56
2022/09/15 05:55:54;;;;;;;2.97;2.67;;;21.30;58.10;;;;;;5059923;28;20389;-60
2022/09/15 05:58:23;;;;;;;3.60;3.30;;;21.30;58.30;;;;;;5069922;28;20520;-60
2022/09/15 06:00:52;;;;;;;3.38;3.05;;;21.30;58.40;;;;;;5055554;28;20041;-59
2022/09/15 06:03:20;;;;;;;3.78;3.38;;;21.20;58.40;;;;;;5061655;28;20072;-60
2022/09/15 06:05:47;;;;;;;5.63;3.53;;;21.20;58.60;;;;;;5068593;28;20055;-60
2022/09/15 06:08:14;;;;;;;6.22;3.90;;;21.20;58.60;;;;;;5065289;28;20143;-58
2022/09/15 06:10:41;;;;;;;7.22;3.58;;;21.20;58.70;;;;;;5067382;28;20036;-60
2022/09/15 06:13:08;;;;;;;7.10;4.63;;;21.20;58.80;;;;;;5067266;28;20040;-60
2022/09/15 06:15:37;;;;;;;5.82;4.50;;;21.10;58.80;;;;;;5060676;28;20040;-60
2022/09/15 06:18:04;;;;;;;9.18;3.92;;;21.10;58.80;;;;;;5058373;28;20524;-60
2022/09/15 06:20:31;;;;;;;8.95;4.90;;;21.10;59.00;;;;;;5055628;28;20124;-61
2022/09/15 06:22:58;;;;;;;4.35;3.90;;;21.00;59.00;;;;;;5050129;28;20049;-60
2022/09/15 06:25:25;;;;;;;7.72;5.60;;;21.10;59.20;;;;;;5052117;28;20126;-60
2022/09/15 06:27:53;;;;;;;7.00;3.83;;;21.00;59.10;;;;;;5061968;28;20076;-60
2022/09/15 06:30:20;;;;;;;11.73;4.32;;;21.00;59.30;;;;;;5063981;28;20420;-61
2022/09/15 06:32:49;;;;;;;12.02;4.88;;;20.90;59.30;;;;;;5059417;28;20055;-62
2022/09/15 06:35:16;;;;;;;6.72;4.93;;;21.00;59.40;;;;;;5059460;28;20144;-57
2022/09/15 06:37:43;;;;;;;9.75;5.28;;;20.90;59.40;;;;;;5062114;28;20090;-61
2022/09/15 06:40:11;;;;;;;6.63;5.40;;;21.00;59.50;;;;;;5065569;28;20493;-59
2022/09/15 06:42:38;;;;;;;12.90;5.85;;;20.90;59.30;;;;;;5065102;28;20045;-61
2022/09/15 06:45:05;;;;;;;8.50;5.63;;;20.90;59.40;;;;;;5051267;28;20437;-61
2022/09/15 06:47:33;;;;;;;10.00;5.03;;;20.90;59.40;;;;;;5058923;28;20110;-60
2022/09/15 06:50:02;;;;;;;10.98;6.03;;;20.90;59.50;;;;;;5062159;28;20125;-60
2022/09/15 06:52:30;;;;;;;9.85;6.10;;;20.90;59.40;;;;;;5049346;28;20045;-60
2022/09/15 06:54:57;;;;;;;11.30;5.65;;;20.90;59.30;;;;;;5059744;28;20394;-60
2022/09/15 06:57:24;;;;;;;7.80;6.13;;;20.90;59.70;;;;;;5065110;28;20444;-59
2022/09/15 06:59:51;;;;;;;17.13;5.20;;;20.80;59.70;;;;;;5055649;28;20072;-60
2022/09/15 07:02:18;;;;;;;13.68;8.13;;;20.90;59.10;;;;;;5056410;28;20056;-59
2022/09/15 07:04:45;;;;;;;15.32;7.25;;;20.90;59.10;;;;;;5052373;28;20987;-60
2022/09/15 07:07:13;;;;;;;13.02;6.75;;;20.80;59.00;;;;;;5057863;28;20072;-60
2022/09/15 07:09:40;;;;;;;15.43;7.35;;;20.90;59.00;;;;;;5056012;28;20056;-60
2022/09/15 07:12:08;;;;;;;12.48;7.03;;;20.80;58.80;;;;;;5049853;28;20045;-59
2022/09/15 07:14:35;;;;;;;12.18;6.03;;;20.80;58.90;;;;;;5044022;28;20123;-56
2022/09/15 07:17:02;;;;;;;16.75;6.90;;;20.70;59.10;;;;;;5049822;28;20261;-61
2022/09/15 07:19:29;;;;;;;16.70;6.45;;;20.80;59.40;;;;;;5056662;28;20094;-51
2022/09/15 07:21:56;;;;;;;11.38;6.70;;;20.80;59.30;;;;;;5053583;28;20124;-55
2022/09/15 07:24:25;;;;;;;9.23;6.57;;;20.90;59.30;;;;;;5059875;28;20041;-63
2022/09/15 07:26:52;;;;;;;11.55;5.70;;;20.90;59.10;;;;;;5055698;28;20119;-57
2022/09/15 07:29:19;;;;;;;16.13;9.48;;;20.90;59.00;;;;;;5057295;28;20037;-59
2022/09/15 07:31:46;;;;;;;15.98;9.35;;;21.00;60.00;;;;;;5059759;28;20120;-56
2022/09/15 07:34:13;;;;;;;11.30;6.65;;;21.10;59.60;;;;;;5050019;28;20127;-50
2022/09/15 07:36:40;;;;;;;11.98;6.28;;;21.10;59.40;;;;;;5057283;28;20559;-58
2022/09/15 07:39:07;;;;;;;11.55;6.13;;;21.10;59.10;;;;;;5049310;28;20102;-52
2022/09/15 07:41:35;;;;;;;13.52;7.05;;;21.20;58.90;;;;;;5061316;28;20068;-52
2022/09/15 07:44:03;;;;;;;11.45;6.57;;;21.30;58.60;;;;;;5052980;28;20136;-57
2022/09/15 07:46:32;;;;;;;11.32;7.13;;;21.30;58.20;;;;;;5062053;28;20493;-62
2022/09/15 07:49:01;;;;;;;15.27;5.10;;;21.30;57.90;;;;;;5048054;28;20694;-54
2022/09/15 07:51:29;;;;;;;11.40;6.65;;;21.40;57.70;;;;;;5052664;28;20037;-55
2022/09/15 07:53:56;;;;;;;12.93;5.75;;;21.40;57.50;;;;;;5055554;28;20045;-53
2022/09/15 07:56:23;;;;;;;11.95;6.68;;;21.40;57.60;;;;;;5055988;28;20052;-52
2022/09/15 07:58:52;;;;;;;9.15;5.38;;;21.40;57.60;;;;;;5058678;28;20535;-55
2022/09/15 08:01:21;;;;;;;9.65;5.72;;;21.40;57.40;;;;;;5061177;28;20037;-52
2022/09/15 08:03:49;;;;;;;13.63;7.20;;;21.50;57.40;;;;;;5048370;28;20033;-55
2022/09/15 08:06:18;;;;;;;7.72;5.43;;;21.50;57.10;;;;;;5048984;28;20416;-53
2022/09/15 08:08:46;;;;;;;13.75;5.22;;;21.50;56.70;;;;;;5048277;28;20032;-50
2022/09/15 08:11:16;;;;;;;10.55;5.68;;;21.50;56.50;;;;;;5055751;28;20144;-54
2022/09/15 08:13:44;;;;;;;12.40;7.70;;;21.60;56.50;;;;;;5062321;28;20043;-56
2022/09/15 08:16:14;;;;;;;12.88;7.70;;;21.60;56.50;;;;;;5061674;28;20526;-53
2022/09/15 08:18:43;;;;;;;14.10;7.55;;;21.60;56.30;;;;;;5056536;28;20037;-54
2022/09/15 08:21:12;;;;;;;10.73;5.70;;;21.60;56.30;;;;;;5055266;28;20045;-52
2022/09/15 08:23:40;;;;;;;6.70;4.95;;;21.70;55.90;;;;;;5063605;28;20051;-52
2022/09/15 08:26:08;;;;;;;8.25;4.18;;;21.70;55.60;;;;;;5058093;28;20123;-56
2022/09/15 08:28:36;;;;;;;11.20;3.60;;;21.70;55.50;;;;;;5052608;28;20583;-54
2022/09/15 08:31:05;;;;;;;7.10;3.90;;;21.80;55.80;;;;;;5051933;28;20041;-54
2022/09/15 08:33:33;;;;;;;8.50;4.78;;;21.80;54.70;;;;;;5062086;28;20068;-51
2022/09/15 08:36:02;;;;;;;6.70;2.80;;;21.90;54.50;;;;;;5052930;28;20140;-56
2022/09/15 08:38:29;;;;;;;11.25;3.70;;;21.90;54.40;;;;;;5058824;28;20069;-54
2022/09/15 08:41:05;;;;;;;6.72;2.88;;;21.90;54.30;;;;;;5056545;28;20040;-52
2022/09/15 08:43:45;;;;;;;5.15;3.75;;;22.00;54.20;;;;;;5066676;28;20080;-54
2022/09/15 08:46:18;;;;;;;10.77;3.60;;;22.00;53.90;;;;;;5065166;28;20866;-55
2022/09/15 08:48:51;;;;;;;3.80;3.50;;;22.10;53.70;;;;;;5058579;28;20041;-55
2022/09/15 08:51:25;;;;;;;4.57;2.72;;;22.20;54.00;;;;;;5056248;28;20069;-53
2022/09/15 08:53:58;;;;;;;8.23;2.08;;;22.20;53.20;;;;;;5057313;28;20094;-53
2022/09/15 08:56:28;;;;;;;5.07;1.95;;;22.20;53.00;;;;;;5053570;28;20098;-52
2022/09/15 08:58:55;;;;;;;7.63;2.03;;;22.30;52.60;;;;;;5066914;28;20040;-52
2022/09/15 09:01:37;;;;;;;4.72;0.95;;;22.30;52.20;;;;;;5054669;28;20044;-51
2022/09/15 09:04:28;;;;;;;6.28;1.13;;;22.40;51.70;;;;;;5049288;28;20049;-51
2022/09/15 09:07:09;;;;;;;5.20;0.52;;;22.50;51.20;;;;;;5052537;28;20128;-54
2022/09/15 09:09:46;;;;;;;5.00;2.28;;;22.50;50.90;;;;;;5048943;28;20076;-55
2022/09/15 09:12:28;;;;;;;4.32;0.98;;;22.60;50.80;;;;;;5060867;28;20079;-54
2022/09/15 09:15:07;;;;;;;9.27;0.93;;;22.60;50.60;;;;;;5060064;28;20045;-54
2022/09/15 09:17:54;;;;;;;2.08;0.60;;;22.70;50.40;;;;;;5058755;28;20037;-53
2022/09/15 09:20:35;;;;;;;2.53;0.73;;;22.80;50.30;;;;;;5048242;28;20037;-50
2022/09/15 09:23:07;;;;;;;1.13;0.65;;;22.90;50.10;;;;;;5057250;28;20069;-53
2022/09/15 09:25:35;;;;;;;3.88;0.50;;;22.90;49.90;;;;;;5059681;28;20932;-53
2022/09/15 09:28:05;;;;;;;6.93;1.00;;;23.00;49.80;;;;;;5060889;28;20059;-51
2022/09/15 09:30:35;;;;;;;1.00;0.50;;;23.10;49.60;;;;;;5056695;28;20041;-52
2022/09/15 09:33:18;;;;;;;2.20;1.35;;;23.10;49.40;;;;;;5061762;28;20055;-53
2022/09/15 09:35:50;;;;;;;2.92;0.60;;;23.20;49.30;;;;;;5059809;28;20052;-54
2022/09/15 09:38:20;;;;;;;4.63;1.23;;;23.20;49.30;;;;;;5063942;28;20151;-56
2022/09/15 09:40:49;;;;;;;1.92;0.50;;;23.20;49.20;;;;;;5059122;28;20128;-56
2022/09/15 09:43:16;;;;;;;2.55;0.50;;;23.30;49.00;;;;;;5064474;28;20040;-56
2022/09/15 09:45:44;;;;;;;4.97;1.85;;;23.30;49.00;;;;;;5062345;28;20106;-56
2022/09/15 09:48:17;;;;;;;2.47;0.40;;;23.40;48.90;;;;;;5049905;28;20751;-55
2022/09/15 09:50:45;;;;;;;2.20;0.57;;;23.40;48.90;;;;;;5060604;28;20068;-54
2022/09/15 09:53:23;;;;;;;6.15;0.47;;;23.50;48.80;;;;;;5061903;28;20380;-56
2022/09/15 09:55:52;;;;;;;3.13;0.90;;;23.50;49.00;;;;;;5052915;28;20460;-53
2022/09/15 09:58:21;;;;;;;2.33;0.52;;;23.50;48.80;;;;;;5065932;28;20043;-54
2022/09/15 10:00:49;;;;;;;5.15;0.90;;;23.60;48.90;;;;;;5061126;28;20044;-55
2022/09/15 10:03:18;;;;;;;3.53;0.90;;;23.60;49.00;;;;;;5060678;28;20803;-55
2022/09/15 10:05:59;;;;;;;6.90;0.65;;;23.60;48.90;;;;;;5050602;28;20765;-51
2022/09/15 10:08:27;;;;;;;3.70;0.63;;;23.60;48.80;;;;;;5060419;28;20116;-55
2022/09/15 10:11:00;;;;;;;11.18;1.13;;;23.60;48.70;;;;;;5049872;28;20136;-53
2022/09/15 10:13:27;;;;;;;8.30;1.83;;;23.70;48.70;;;;;;5050151;28;20054;-53
2022/09/15 10:15:57;;;;;;;9.88;0.38;;;23.70;48.50;;;;;;5063891;28;20045;-54
2022/09/15 10:18:31;;;;;;;0.30;0.20;;;23.70;48.20;;;;;;5055936;28;20127;-52
2022/09/15 10:21:00;;;;;;;3.17;0.20;;;23.70;47.90;;;;;;5050650;28;20398;-55
2022/09/15 10:23:30;;;;;;;0.50;0.10;;;23.70;48.10;;;;;;5052639;28;20041;-53
2022/09/15 10:26:14;;;;;;;1.98;0.20;;;23.70;47.90;;;;;;5042808;28;20167;-54
2022/09/15 10:28:42;;;;;;;3.03;0.40;;;23.80;47.50;;;;;;5046902;28;20033;-53
2022/09/15 10:31:12;;;;;;;0.75;0.20;;;23.80;47.30;;;;;;5055417;28;20048;-55
2022/09/15 10:33:41;;;;;;;2.17;0.20;;;23.90;47.10;;;;;;5059155;28;20048;-53
2022/09/15 10:36:14;;;;;;;4.10;0.30;;;23.90;47.30;;;;;;5060723;28;20041;-53
2022/09/15 10:38:44;;;;;;;2.38;0.10;;;24.00;46.90;;;;;;5061481;28;20033;-55
2022/09/15 10:41:28;;;;;;;3.40;0.43;;;24.10;47.20;;;;;;5065101;28;20044;-54
2022/09/15 10:44:19;;;;;;;5.38;0.35;;;24.20;46.70;;;;;;5057302;28;20128;-55
2022/09/15 10:46:53;;;;;;;3.22;0.15;;;24.30;46.60;;;;;;5047204;28;20091;-55
2022/09/15 10:49:33;;;;;;;0.57;0.10;;;24.30;46.30;;;;;;5061485;28;20043;-54
2022/09/15 10:52:11;;;;;;;6.47;0.52;;;24.40;46.30;;;;;;5062461;28;20045;-55
2022/09/15 10:55:00;;;;;;;2.38;0.10;;;24.50;45.90;;;;;;5061738;28;20067;-52
2022/09/15 10:57:48;;;;;;;3.35;0.60;;;24.50;45.90;;;;;;5060587;28;20049;-55
2022/09/15 11:00:21;;;;;;;0.63;0.10;;;24.60;46.00;;;;;;5047856;28;20174;-54
2022/09/15 11:03:11;;;;;;;1.90;0.10;;;24.70;45.40;;;;;;5055198;28;20040;-51
2022/09/15 11:05:52;;;;;;;8.82;0.95;;;24.90;45.00;;;;;;5054014;28;20044;-56
2022/09/15 11:08:50;;;;;;;2.70;0.15;;;24.90;45.00;;;;;;5050575;28;20074;-56
2022/09/15 11:11:24;;;;;;;6.85;0.43;;;25.10;44.70;;;;;;5049680;28;20152;-55
2022/09/15 11:14:06;;;;;;;3.53;0.10;;;25.10;44.60;;;;;;5058860;28;20033;-54
2022/09/15 11:16:50;;;;;;;0.40;0.10;;;25.10;44.20;;;;;;5057292;28;20033;-55
2022/09/15 11:19:31;;;;;;;3.40;0.10;;;25.20;44.20;;;;;;5062124;28;20142;-55
2022/09/15 11:22:03;;;;;;;3.10;0.20;;;25.20;44.30;;;;;;5049010;28;20147;-55
2022/09/15 11:24:38;;;;;;;1.70;0.10;;;25.20;44.10;;;;;;5053417;28;20037;-55
2022/09/15 11:27:16;;;;;;;2.53;0.10;;;25.30;44.10;;;;;;5061528;28;20102;-55
2022/09/15 11:30:01;;;;;;;3.70;0.38;;;25.40;44.00;;;;;;5062987;28;20287;-54
2022/09/15 11:32:32;;;;;;;1.48;0.63;;;25.60;44.00;;;;;;5056585;28;20131;-55
2022/09/15 11:35:07;;;;;;;3.53;0.10;;;25.60;43.90;;;;;;5048421;28;20516;-55
2022/09/15 11:37:38;;;;;;;1.50;0.10;;;25.70;43.40;;;;;;5061009;28;20135;-53
2022/09/15 11:40:14;;;;;;;1.02;0.10;;;25.90;43.10;;;;;;5047216;28;20045;-49
2022/09/15 11:42:49;;;;;;;1.25;0.10;;;26.00;42.90;;;;;;5058547;28;20033;-54
2022/09/15 11:45:21;;;;;;;1.85;0.10;;;26.00;42.50;;;;;;5050107;28;20699;-56
2022/09/15 11:47:52;;;;;;;0.75;0.08;;;26.10;42.40;;;;;;5055026;28;20843;-54
2022/09/15 11:50:22;;;;;;;3.80;0.20;;;26.20;42.00;;;;;;5050384;28;20070;-54
2022/09/15 11:52:57;;;;;;;3.00;0.73;;;26.40;41.90;;;;;;5054906;28;20069;-54
2022/09/15 11:55:30;;;;;;;2.30;0.10;;;26.40;41.30;;;;;;5053674;28;20490;-54
2022/09/15 11:58:17;;;;;;;3.33;0.10;;;26.40;41.10;;;;;;5047302;28;20037;-54
2022/09/15 12:00:52;;;;;;;2.90;0.10;;;26.50;41.30;;;;;;5045962;28;20628;-55
2022/09/15 12:03:24;;;;;;;2.60;0.40;;;26.60;41.30;;;;;;5062262;28;20063;-51
2022/09/15 12:05:56;;;;;;;7.45;0.20;;;26.70;41.10;;;;;;5061055;28;20060;-54
2022/09/15 12:08:31;;;;;;;1.52;0.10;;;26.80;40.70;;;;;;5059336;28;20048;-53
2022/09/15 12:11:02;;;;;;;1.85;0.10;;;26.80;40.50;;;;;;5049359;28;20083;-51
2022/09/15 12:13:31;;;;;;;2.63;0.20;;;26.90;41.00;;;;;;5048449;28;20047;-53
2022/09/15 12:16:00;;;;;;;2.20;0.40;;;26.90;40.50;;;;;;5054519;28;20044;-52
2022/09/15 12:18:34;;;;;;;1.88;0.10;;;27.00;40.20;;;;;;5057299;28;20053;-52
2022/09/15 12:21:05;;;;;;;3.55;0.10;;;27.00;40.00;;;;;;5040854;28;20126;-54
2022/09/15 12:23:37;;;;;;;0.68;0.10;;;27.00;40.00;;;;;;5052879;28;20044;-53
2022/09/15 12:26:13;;;;;;;1.58;0.10;;;26.90;39.80;;;;;;5063782;28;20588;-55
2022/09/15 12:28:53;;;;;;;6.80;0.20;;;26.90;39.80;;;;;;5058127;28;20106;-52
2022/09/15 12:31:32;;;;;;;11.50;1.75;;;26.90;40.00;;;;;;5054971;28;20044;-55
2022/09/15 12:34:00;;;;;;;1.02;0.10;;;26.80;39.90;;;;;;5057887;28;20065;-54
2022/09/15 12:36:37;;;;;;;0.45;0.03;;;26.80;40.20;;;;;;5064661;28;20045;-54
2022/09/15 12:39:19;;;;;;;0.60;0.10;;;26.70;40.30;;;;;;5063687;28;20562;-55
2022/09/15 12:41:48;;;;;;;0.38;0.10;;;26.60;40.40;;;;;;5055337;28;20045;-56
2022/09/15 12:44:29;;;;;;;0.80;0.30;;;26.60;40.50;;;;;;5059508;28;20509;-53
2022/09/15 12:46:58;;;;;;;3.53;0.20;;;26.60;40.70;;;;;;5068762;28;20057;-55
2022/09/15 12:49:32;;;;;;;0.10;0.10;;;26.60;41.50;;;;;;5055493;28;20040;-53
2022/09/15 12:52:01;;;;;;;0.85;0.10;;;26.60;41.00;;;;;;5050949;28;20049;-52
2022/09/15 12:54:31;;;;;;;1.02;0.10;;;26.60;41.00;;;;;;5054982;28;20046;-54
2022/09/15 12:57:00;;;;;;;0.40;0.15;;;26.60;41.10;;;;;;5052815;28;20631;-54
2022/09/15 12:59:29;;;;;;;0.68;0.15;;;26.70;41.00;;;;;;5062519;28;20500;-54
2022/09/15 13:01:56;;;;;;;2.08;0.20;;;26.80;40.80;;;;;;5064866;28;20037;-54
2022/09/15 13:04:48;;;;;;;0.10;0.10;;;26.80;40.80;;;;;;5066162;28;20048;-52
2022/09/15 13:07:35;;;;;;;0.20;0.10;;;26.80;40.80;;;;;;5059462;28;20044;-54